CheckWX is a tool to help pilots better visualize weather data.  It is not intended as a substitute for an official pre-flight weather briefing.

08:18:31 UTC

KFFA METAR
First Flight Airport
Kill Devil Hills, North Carolina, USA
Current

19 mins ago

KFFA 220800Z AUTO 00000KT 10SM OVC070 08/08 A3018 RMK AO2 T00780075
Observed
Feb-22 @ 08:00 UTC
Visibility
10 SM
Flight Rules
VFR
Cloud Levels
  • Overcast at 7,000' AGL
Temperature
C / 46°F
Dewpoint
C / 46°F
Humidity
100%
Altimeter
30.18" Hg
Pressure
1022.02 hPa
Previous

39 mins ago

KFFA 220740Z AUTO 00000KT 10SM OVC070 08/08 A3018 RMK AO2 T00780075
Observed
Feb-22 @ 07:40 UTC
Visibility
10 SM
Flight Rules
VFR
Cloud Levels
  • Overcast at 7,000' AGL
Temperature
C / 46°F
Dewpoint
C / 46°F
Humidity
100%
Altimeter
30.18" Hg
Pressure
1022.02 hPa
Previous

59 mins ago

KFFA 220720Z AUTO 01003KT 10SM OVC070 08/08 A3019 RMK AO2 T00770077
Observed
Feb-22 @ 07:20 UTC
Wind
  • 010° at 3 KTS
Visibility
10 SM
Flight Rules
VFR
Cloud Levels
  • Overcast at 7,000' AGL
Temperature
C / 46°F
Dewpoint
C / 46°F
Humidity
100%
Altimeter
30.19" Hg
Pressure
1022.32 hPa